createdAt,value
2024-04-26T00:01:17.409Z,5.15
2024-04-26T00:03:45.697Z,5.60
2024-04-26T00:06:12.874Z,4.97
2024-04-26T00:08:41.273Z,5.75
2024-04-26T00:11:08.339Z,6.35
2024-04-26T00:13:35.781Z,5.20
2024-04-26T00:16:03.471Z,5.20
2024-04-26T00:18:33.452Z,5.00
2024-04-26T00:21:02.217Z,5.22
2024-04-26T00:23:29.668Z,4.80
2024-04-26T00:25:56.841Z,4.95
2024-04-26T00:28:23.766Z,5.57
2024-04-26T00:30:50.678Z,5.00
2024-04-26T00:33:17.884Z,5.88
2024-04-26T00:35:44.973Z,5.20
2024-04-26T00:38:13.141Z,6.50
2024-04-26T00:40:40.278Z,6.38
2024-04-26T00:43:08.910Z,5.05
2024-04-26T00:45:35.821Z,4.70
2024-04-26T00:48:03.066Z,5.30
2024-04-26T00:50:30.108Z,5.10
2024-04-26T00:52:58.032Z,6.85
2024-04-26T00:55:25.157Z,4.50
2024-04-26T00:57:52.227Z,5.20
2024-04-26T01:00:19.256Z,4.13
2024-04-26T01:02:46.883Z,3.72
2024-04-26T01:05:13.966Z,4.50
2024-04-26T01:07:42.600Z,5.15
2024-04-26T01:10:09.919Z,6.28
2024-04-26T01:12:36.883Z,5.50
2024-04-26T01:15:04.087Z,8.52
2024-04-26T01:17:31.181Z,5.72
2024-04-26T01:19:58.275Z,4.45
2024-04-26T01:22:34.466Z,5.68
2024-04-26T01:25:01.331Z,5.53
2024-04-26T01:27:28.607Z,5.05
2024-04-26T01:29:55.642Z,4.65
2024-04-26T01:32:22.636Z,4.65
2024-04-26T01:34:49.696Z,4.85
2024-04-26T01:37:16.602Z,7.00
2024-04-26T01:39:43.499Z,6.35
2024-04-26T01:42:10.479Z,5.65
2024-04-26T01:44:37.496Z,7.22
2024-04-26T01:47:04.657Z,4.70
2024-04-26T01:49:31.557Z,8.75
2024-04-26T01:51:58.457Z,5.60
2024-04-26T01:54:25.341Z,5.30
2024-04-26T01:56:52.320Z,6.60
2024-04-26T01:59:19.418Z,5.82
2024-04-26T02:01:46.322Z,6.78
2024-04-26T02:04:13.330Z,4.68
2024-04-26T02:06:40.321Z,5.15
2024-04-26T02:09:07.308Z,5.82
2024-04-26T02:11:37.606Z,5.40
2024-04-26T02:14:04.704Z,5.80
2024-04-26T02:16:31.779Z,5.70
2024-04-26T02:19:00.815Z,10.57
2024-04-26T02:21:28.004Z,10.35
2024-04-26T02:23:55.096Z,5.38
2024-04-26T02:26:22.924Z,5.22
2024-04-26T02:28:50.026Z,11.85
2024-04-26T02:31:18.641Z,7.30
2024-04-26T02:33:45.995Z,5.50
2024-04-26T02:36:13.058Z,7.22
2024-04-26T02:38:42.133Z,7.13
2024-04-26T02:41:12.009Z,6.75
2024-04-26T02:43:42.804Z,7.90
2024-04-26T02:46:18.834Z,9.93
2024-04-26T02:48:45.969Z,9.88
2024-04-26T02:51:13.787Z,10.23
2024-04-26T02:53:41.951Z,7.88
2024-04-26T02:56:10.050Z,7.47
2024-04-26T02:58:40.133Z,7.80
2024-04-26T03:01:07.985Z,7.78
2024-04-26T03:03:37.575Z,6.55
2024-04-26T03:06:09.857Z,7.60
2024-04-26T03:08:41.015Z,6.43
2024-04-26T03:11:12.790Z,6.07
2024-04-26T03:13:45.690Z,5.90
2024-04-26T03:16:12.783Z,6.88
2024-04-26T03:18:40.138Z,9.95
2024-04-26T03:21:07.419Z,7.45
2024-04-26T03:23:34.584Z,6.93
2024-04-26T03:26:01.516Z,5.95
2024-04-26T03:28:28.626Z,5.88
2024-04-26T03:30:55.492Z,5.68
2024-04-26T03:33:22.488Z,5.50
2024-04-26T03:35:49.620Z,4.78
2024-04-26T03:38:16.735Z,5.65
2024-04-26T03:40:43.777Z,7.07
2024-04-26T03:43:14.729Z,5.90
2024-04-26T03:45:41.935Z,6.20
2024-04-26T03:48:09.130Z,6.90
2024-04-26T03:50:36.379Z,6.63
2024-04-26T03:53:03.277Z,5.75
2024-04-26T03:55:30.202Z,5.05
2024-04-26T03:57:57.845Z,4.57
2024-04-26T04:00:24.806Z,4.38
2024-04-26T04:02:51.914Z,4.88
2024-04-26T04:05:19.086Z,4.25
2024-04-26T04:07:46.006Z,5.63
2024-04-26T04:10:13.085Z,6.57
2024-04-26T04:12:44.314Z,4.85
2024-04-26T04:15:11.518Z,6.10
2024-04-26T04:17:39.014Z,5.30
2024-04-26T04:20:06.955Z,4.82
2024-04-26T04:22:33.915Z,4.68
2024-04-26T04:25:02.287Z,4.72
2024-04-26T04:27:29.918Z,4.95
2024-04-26T04:29:58.755Z,5.57
2024-04-26T04:32:26.804Z,6.68
2024-04-26T04:34:55.369Z,7.55
2024-04-26T04:37:22.790Z,5.63
2024-04-26T04:39:49.810Z,5.15
2024-04-26T04:42:16.919Z,6.07
2024-04-26T04:44:44.130Z,4.95
2024-04-26T04:47:11.169Z,5.07
2024-04-26T04:49:38.103Z,4.95
2024-04-26T04:52:06.700Z,7.05
2024-04-26T04:54:35.630Z,4.70
2024-04-26T04:57:03.110Z,5.18
2024-04-26T04:59:30.109Z,7.00
2024-04-26T05:01:57.134Z,5.68
2024-04-26T05:04:24.277Z,8.38
2024-04-26T05:06:51.383Z,5.55
2024-04-26T05:09:18.363Z,4.50
2024-04-26T05:11:45.547Z,5.97
2024-04-26T05:14:12.577Z,4.72
2024-04-26T05:16:39.485Z,5.85
2024-04-26T05:19:06.641Z,8.48
2024-04-26T05:21:33.647Z,5.38
2024-04-26T05:24:00.624Z,5.53
2024-04-26T05:26:27.623Z,5.18
2024-04-26T05:28:54.675Z,4.95
2024-04-26T05:31:21.640Z,5.43
2024-04-26T05:33:48.822Z,5.68
2024-04-26T05:36:16.071Z,6.35
2024-04-26T05:38:43.110Z,7.50
2024-04-26T05:41:13.801Z,5.68
2024-04-26T05:43:41.172Z,6.20
2024-04-26T05:46:11.457Z,5.38
2024-04-26T05:48:38.963Z,6.38
2024-04-26T05:51:14.612Z,5.25
2024-04-26T05:53:42.832Z,7.22
2024-04-26T05:56:11.178Z,5.28
2024-04-26T05:58:41.463Z,6.57
2024-04-26T06:01:08.879Z,5.35
2024-04-26T06:03:39.029Z,5.93
2024-04-26T06:06:09.180Z,5.82
2024-04-26T06:08:39.148Z,7.00
2024-04-26T06:11:07.190Z,8.00
2024-04-26T06:13:35.364Z,5.78
2024-04-26T06:16:09.649Z,5.43
2024-04-26T06:18:37.403Z,14.93
2024-04-26T06:21:04.652Z,5.90
2024-04-26T06:23:31.781Z,5.10
2024-04-26T06:25:58.714Z,4.95
2024-04-26T06:28:25.745Z,4.38
2024-04-26T06:30:52.633Z,7.55
2024-04-26T06:33:19.861Z,6.35
2024-04-26T06:35:47.788Z,4.35
2024-04-26T06:38:16.063Z,4.63
2024-04-26T06:40:43.180Z,5.93
2024-04-26T06:43:10.119Z,4.72
2024-04-26T06:45:37.094Z,4.78
2024-04-26T06:48:04.586Z,9.88
2024-04-26T06:50:31.717Z,5.38
2024-04-26T06:52:58.722Z,9.57
2024-04-26T06:55:25.731Z,5.10
2024-04-26T06:57:52.939Z,4.22
2024-04-26T07:00:19.927Z,4.85
2024-04-26T07:02:47.316Z,5.63
2024-04-26T07:05:14.667Z,9.05
2024-04-26T07:07:41.741Z,5.20
2024-04-26T07:10:08.795Z,5.28
2024-04-26T07:12:35.860Z,4.88
2024-04-26T07:15:03.074Z,6.57
2024-04-26T07:17:30.494Z,8.68
2024-04-26T07:19:57.769Z,4.18
2024-04-26T07:22:24.862Z,6.35
2024-04-26T07:24:52.889Z,3.28
2024-04-26T07:27:20.279Z,4.20
2024-04-26T07:29:47.204Z,3.83
2024-04-26T07:32:14.254Z,3.78
2024-04-26T07:34:42.371Z,3.90
2024-04-26T07:37:10.170Z,3.45
2024-04-26T07:39:37.236Z,4.65
2024-04-26T07:42:06.562Z,2.90
2024-04-26T07:44:33.842Z,3.72
2024-04-26T07:47:00.843Z,4.57
2024-04-26T07:49:32.855Z,3.78
2024-04-26T07:52:00.132Z,4.20
2024-04-26T07:54:28.085Z,4.75
2024-04-26T07:56:55.355Z,3.63
2024-04-26T07:59:22.363Z,12.25
2024-04-26T08:01:49.383Z,5.93
2024-04-26T08:04:18.122Z,7.53
2024-04-26T08:06:45.288Z,6.00
2024-04-26T08:09:12.505Z,4.75
2024-04-26T08:11:39.461Z,4.25
2024-04-26T08:14:06.520Z,2.60
2024-04-26T08:16:33.522Z,2.58
2024-04-26T08:19:00.834Z,2.97
2024-04-26T08:21:27.836Z,2.70
2024-04-26T08:23:58.175Z,3.78
2024-04-26T08:26:25.608Z,2.50
2024-04-26T08:28:52.612Z,2.97
2024-04-26T08:31:21.408Z,2.63
2024-04-26T08:33:48.671Z,2.40
2024-04-26T08:36:16.170Z,4.68
2024-04-26T08:38:44.811Z,2.20
2024-04-26T08:41:11.987Z,2.78
2024-04-26T08:43:38.904Z,2.45
2024-04-26T08:46:08.235Z,2.50
2024-04-26T08:48:38.890Z,3.58
2024-04-26T08:51:07.753Z,3.50
2024-04-26T08:53:35.911Z,5.25
2024-04-26T08:56:07.799Z,2.20
2024-04-26T08:58:35.463Z,3.95
2024-04-26T09:01:02.944Z,3.75
2024-04-26T09:03:30.219Z,2.00
2024-04-26T09:05:58.653Z,2.50
2024-04-26T09:08:25.822Z,1.80
2024-04-26T09:10:53.596Z,3.00
2024-04-26T09:13:20.646Z,5.03
2024-04-26T09:15:47.704Z,2.60
2024-04-26T09:18:15.024Z,2.08
2024-04-26T09:20:43.957Z,2.38
2024-04-26T09:23:12.403Z,1.60
2024-04-26T09:25:44.284Z,4.93
2024-04-26T09:28:11.261Z,4.05
2024-04-26T09:30:51.236Z,2.30
2024-04-26T09:33:22.845Z,3.38
2024-04-26T09:35:50.857Z,1.95
2024-04-26T09:38:20.636Z,3.00
2024-04-26T09:40:52.965Z,3.47
2024-04-26T09:43:20.985Z,1.80
2024-04-26T09:45:48.479Z,5.82
2024-04-26T09:48:16.261Z,2.53
2024-04-26T09:50:43.564Z,4.07
2024-04-26T09:53:10.648Z,3.67
2024-04-26T09:55:37.603Z,1.67
2024-04-26T09:58:04.683Z,1.30
2024-04-26T10:00:31.714Z,1.25
2024-04-26T10:03:02.297Z,1.88
2024-04-26T10:05:30.454Z,5.65
2024-04-26T10:08:02.401Z,1.70
2024-04-26T10:10:31.268Z,1.80
2024-04-26T10:13:17.493Z,2.75
2024-04-26T10:15:55.026Z,3.28
2024-04-26T10:18:35.706Z,2.22
2024-04-26T10:21:03.374Z,1.30
2024-04-26T10:23:30.378Z,3.30
2024-04-26T10:26:08.563Z,2.70
2024-04-26T10:28:37.786Z,4.15
2024-04-26T10:31:05.463Z,3.30
2024-04-26T10:33:36.175Z,8.13
2024-04-26T10:36:08.180Z,3.42
2024-04-26T10:38:43.661Z,4.32
2024-04-26T10:41:11.051Z,1.77
2024-04-26T10:43:38.157Z,1.42
2024-04-26T10:46:07.357Z,2.45
2024-04-26T10:48:36.217Z,2.28
2024-04-26T10:51:08.008Z,1.35
2024-04-26T10:53:35.601Z,1.75
2024-04-26T10:56:04.208Z,2.85
2024-04-26T10:58:41.618Z,2.47
2024-04-26T11:01:25.941Z,1.77
2024-04-26T11:03:58.310Z,2.97
2024-04-26T11:06:29.803Z,1.45
2024-04-26T11:09:10.493Z,2.28
2024-04-26T11:11:38.397Z,2.10
2024-04-26T11:14:05.762Z,3.00
2024-04-26T11:16:35.964Z,1.55
2024-04-26T11:19:03.068Z,1.20
2024-04-26T11:21:30.086Z,1.77
2024-04-26T11:23:57.152Z,1.90
2024-04-26T11:26:24.153Z,1.55
2024-04-26T11:28:51.109Z,2.25
2024-04-26T11:31:18.098Z,2.85
2024-04-26T11:33:45.562Z,2.65
2024-04-26T11:36:13.353Z,1.23
2024-04-26T11:38:40.852Z,5.38
2024-04-26T11:41:08.447Z,1.65
2024-04-26T11:43:35.355Z,1.40
2024-04-26T11:46:02.393Z,2.72
2024-04-26T11:48:29.564Z,1.15
2024-04-26T11:50:56.713Z,1.02
2024-04-26T11:53:23.834Z,1.02
2024-04-26T11:55:50.884Z,3.17
2024-04-26T11:58:17.915Z,1.42
2024-04-26T12:00:45.022Z,2.53
2024-04-26T12:03:13.942Z,1.42
2024-04-26T12:05:43.038Z,3.13
2024-04-26T12:08:10.585Z,2.65
2024-04-26T12:10:37.530Z,3.28
2024-04-26T12:13:04.701Z,3.03
2024-04-26T12:15:31.924Z,1.45
2024-04-26T12:17:59.355Z,2.63
2024-04-26T12:20:27.105Z,15.82
2024-04-26T12:22:54.941Z,1.60
2024-04-26T12:25:22.194Z,1.13
2024-04-26T12:27:49.301Z,3.05
2024-04-26T12:30:16.732Z,1.20
2024-04-26T12:32:43.971Z,1.60
2024-04-26T12:35:11.098Z,1.38
2024-04-26T12:37:38.382Z,1.00
2024-04-26T12:40:06.205Z,3.72
2024-04-26T12:42:33.158Z,2.47
2024-04-26T12:45:00.295Z,1.20
2024-04-26T12:47:28.361Z,1.48
2024-04-26T12:49:55.565Z,1.38
2024-04-26T12:52:23.143Z,1.92
2024-04-26T12:54:50.393Z,1.48
2024-04-26T12:57:17.684Z,3.83
2024-04-26T12:59:59.992Z,1.30
2024-04-26T13:02:27.169Z,4.38
2024-04-26T13:04:54.126Z,1.55
2024-04-26T13:07:22.054Z,3.97
2024-04-26T13:09:49.178Z,4.97
2024-04-26T13:12:16.169Z,1.00
2024-04-26T13:14:43.440Z,1.83
2024-04-26T13:17:10.575Z,5.20
2024-04-26T13:19:37.799Z,2.25
2024-04-26T13:22:05.044Z,10.23
2024-04-26T13:24:32.066Z,5.75
2024-04-26T13:26:59.087Z,11.95
2024-04-26T13:29:26.262Z,4.65
2024-04-26T13:31:53.954Z,1.20
2024-04-26T13:34:21.335Z,1.42
2024-04-26T13:36:48.789Z,2.35
2024-04-26T13:39:15.952Z,1.63
2024-04-26T13:41:44.231Z,1.10
2024-04-26T13:44:13.345Z,1.35
2024-04-26T13:46:44.083Z,3.97
2024-04-26T13:49:18.478Z,1.00
2024-04-26T13:51:46.095Z,1.20
2024-04-26T13:54:13.847Z,1.30
2024-04-26T13:56:40.853Z,1.30
2024-04-26T13:59:07.816Z,5.13
2024-04-26T14:01:34.783Z,2.75
2024-04-26T14:04:02.037Z,1.20
2024-04-26T14:06:29.082Z,1.20
2024-04-26T14:08:56.339Z,1.77
2024-04-26T14:11:23.360Z,9.98
2024-04-26T14:13:50.394Z,6.88
2024-04-26T14:16:19.300Z,1.25
2024-04-26T14:18:49.069Z,8.00
2024-04-26T14:21:18.561Z,2.30
2024-04-26T14:23:46.945Z,8.25
2024-04-26T14:26:19.742Z,7.85
2024-04-26T14:28:47.553Z,3.72
2024-04-26T14:31:14.650Z,2.78
2024-04-26T14:33:59.594Z,1.92
2024-04-26T14:36:26.581Z,5.10
2024-04-26T14:38:53.542Z,1.45
2024-04-26T14:41:20.502Z,1.38
2024-04-26T14:43:47.426Z,1.65
2024-04-26T14:46:14.416Z,1.00
2024-04-26T14:48:43.254Z,3.20
2024-04-26T14:51:17.812Z,1.30
2024-04-26T14:53:46.814Z,3.95
2024-04-26T14:56:16.855Z,3.28
2024-04-26T14:58:43.930Z,3.65
2024-04-26T15:01:18.921Z,1.73
2024-04-26T15:03:46.815Z,1.42
2024-04-26T15:06:15.110Z,3.15
2024-04-26T15:08:42.236Z,2.00
2024-04-26T15:11:09.793Z,5.43
2024-04-26T15:13:37.168Z,1.70
2024-04-26T15:16:04.490Z,2.97
2024-04-26T15:18:33.618Z,1.30
2024-04-26T15:21:00.604Z,1.88
2024-04-26T15:23:27.547Z,1.30
2024-04-26T15:25:54.512Z,1.90
2024-04-26T15:28:21.489Z,2.03
2024-04-26T15:30:48.536Z,1.35
2024-04-26T15:33:15.441Z,2.95
2024-04-26T15:35:42.456Z,1.38
2024-04-26T15:38:12.049Z,12.38
2024-04-26T15:40:39.135Z,1.55
2024-04-26T15:43:06.095Z,1.30
2024-04-26T15:45:33.076Z,5.15
2024-04-26T15:48:00.262Z,4.22
2024-04-26T15:50:27.292Z,1.95
2024-04-26T15:52:54.250Z,5.45
2024-04-26T15:55:21.166Z,7.90
2024-04-26T15:57:48.140Z,10.07
2024-04-26T16:00:15.625Z,1.40
2024-04-26T16:02:43.188Z,3.15
2024-04-26T16:05:10.281Z,4.50
2024-04-26T16:07:38.992Z,2.80
2024-04-26T16:10:06.173Z,1.73
2024-04-26T16:12:34.302Z,1.20
2024-04-26T16:15:01.309Z,4.28
2024-04-26T16:17:28.406Z,2.50
2024-04-26T16:19:55.426Z,1.08
2024-04-26T16:22:24.693Z,2.00
2024-04-26T16:24:51.799Z,2.13
2024-04-26T16:27:19.744Z,1.58
2024-04-26T16:29:47.092Z,2.45
2024-04-26T16:32:14.024Z,3.45
2024-04-26T16:34:40.959Z,4.15
2024-04-26T16:37:08.080Z,5.55
2024-04-26T16:39:34.958Z,5.35
2024-04-26T16:42:02.013Z,16.88
2024-04-26T16:44:29.059Z,6.05
2024-04-26T16:46:56.235Z,4.15
2024-04-26T16:49:23.330Z,5.38
2024-04-26T16:51:50.288Z,7.45
2024-04-26T16:54:17.391Z,10.35
2024-04-26T16:56:44.425Z,5.45
2024-04-26T16:59:11.391Z,4.65
2024-04-26T17:01:42.986Z,4.28
2024-04-26T17:04:14.095Z,8.90
2024-04-26T17:06:44.142Z,5.63
2024-04-26T17:09:11.780Z,7.60
2024-04-26T17:11:45.212Z,6.63
2024-04-26T17:14:12.165Z,13.93
2024-04-26T17:16:39.890Z,11.82
2024-04-26T17:19:07.491Z,10.95
2024-04-26T17:21:39.865Z,13.25
2024-04-26T17:24:06.920Z,12.18
2024-04-26T17:26:33.920Z,10.75
2024-04-26T17:29:00.894Z,9.07
2024-04-26T17:31:35.538Z,9.05
2024-04-26T17:34:02.469Z,13.27
2024-04-26T17:36:33.365Z,8.23
2024-04-26T17:39:00.368Z,8.57
2024-04-26T17:41:27.306Z,10.65
2024-04-26T17:46:47.601Z,6.85
2024-04-26T17:49:15.171Z,14.15
2024-04-26T17:51:44.415Z,15.52
2024-04-26T17:54:11.416Z,18.63
2024-04-26T17:56:39.342Z,20.55
2024-04-26T17:59:12.972Z,36.00
2024-04-26T18:01:41.234Z,31.75
2024-04-26T18:04:08.267Z,17.08
2024-04-26T18:06:35.204Z,21.83
2024-04-26T18:09:02.292Z,23.08
2024-04-26T18:11:29.354Z,24.92
2024-04-26T18:14:02.309Z,13.65
2024-04-26T18:16:29.534Z,20.00
2024-04-26T18:18:56.500Z,39.95
2024-04-26T18:21:26.298Z,94.68
2024-04-26T18:23:58.510Z,132.93
2024-04-26T18:26:26.281Z,85.65
2024-04-26T18:28:53.304Z,62.30
2024-04-26T18:31:20.426Z,48.95
2024-04-26T18:33:48.023Z,46.97
2024-04-26T18:36:19.568Z,40.15
2024-04-26T18:41:14.356Z,23.10
2024-04-26T18:43:45.280Z,21.40
2024-04-26T18:46:14.116Z,32.30
2024-04-26T18:48:43.485Z,16.73
2024-04-26T18:51:14.279Z,22.23
2024-04-26T18:53:41.318Z,12.77
2024-04-26T18:56:11.895Z,14.88
2024-04-26T18:58:39.787Z,17.23
2024-04-26T19:01:07.243Z,20.58
2024-04-26T19:03:34.180Z,18.35
2024-04-26T19:06:01.219Z,22.80
2024-04-26T19:08:28.144Z,19.15
2024-04-26T19:10:55.528Z,8.88
2024-04-26T19:13:24.385Z,9.02
2024-04-26T19:15:51.452Z,17.38
2024-04-26T19:18:18.446Z,17.30
2024-04-26T19:20:45.510Z,16.10
2024-04-26T19:23:12.495Z,26.55
2024-04-26T19:25:39.453Z,76.22
2024-04-26T19:28:06.540Z,34.33
2024-04-26T19:30:34.827Z,23.83
2024-04-26T19:33:05.317Z,39.30
2024-04-26T19:35:33.166Z,34.28
2024-04-26T19:38:00.138Z,43.22
2024-04-26T19:40:27.158Z,45.92
2024-04-26T19:42:54.151Z,18.55
2024-04-26T19:45:21.060Z,19.67
2024-04-26T19:47:48.093Z,17.60
2024-04-26T19:50:15.367Z,16.58
2024-04-26T19:53:00.861Z,14.65
2024-04-26T19:55:46.610Z,14.27
2024-04-26T19:58:14.121Z,8.85
2024-04-26T20:00:41.938Z,15.40
2024-04-26T20:03:08.924Z,14.40
2024-04-26T20:05:35.844Z,22.50
2024-04-26T20:08:03.573Z,32.15
2024-04-26T20:10:30.675Z,16.70
2024-04-26T20:12:57.685Z,7.80
2024-04-26T20:15:24.606Z,7.28
2024-04-26T20:17:52.150Z,6.75
2024-04-26T20:20:41.835Z,11.23
2024-04-26T20:23:07.062Z,25.13
2024-04-26T20:25:34.224Z,30.33
2024-04-26T20:28:01.266Z,15.80
2024-04-26T20:33:09.195Z,14.52
2024-04-26T20:35:36.257Z,15.65
2024-04-26T20:38:03.268Z,7.80
2024-04-26T20:40:30.298Z,10.48
2024-04-26T20:42:57.365Z,69.63
2024-04-26T20:45:24.259Z,78.05
2024-04-26T20:47:51.244Z,60.85
2024-04-26T20:50:18.326Z,73.95
2024-04-26T20:52:48.453Z,16.38
2024-04-26T20:55:16.026Z,11.47
2024-04-26T20:57:44.027Z,10.07
2024-04-26T21:00:11.845Z,18.63
2024-04-26T21:02:38.965Z,14.65
2024-04-26T21:05:06.871Z,12.65
2024-04-26T21:07:37.536Z,11.57
2024-04-26T21:10:11.398Z,7.82
2024-04-26T21:12:38.409Z,7.50
2024-04-26T21:15:05.925Z,8.98
2024-04-26T21:17:33.174Z,9.20
2024-04-26T21:20:01.761Z,8.98
2024-04-26T21:22:28.814Z,7.43
2024-04-26T21:24:55.766Z,6.75
2024-04-26T21:27:22.736Z,7.50
2024-04-26T21:29:49.619Z,13.15
2024-04-26T21:32:16.668Z,12.27
2024-04-26T21:34:43.652Z,9.23
2024-04-26T21:37:10.566Z,11.10
2024-04-26T21:39:37.575Z,10.80
2024-04-26T21:42:04.537Z,10.68
2024-04-26T21:44:34.601Z,11.07
2024-04-26T21:47:03.520Z,9.73
2024-04-26T21:49:30.491Z,11.25
2024-04-26T21:51:57.435Z,17.92
2024-04-26T21:54:24.441Z,13.73
2024-04-26T21:56:51.382Z,12.35
2024-04-26T21:59:18.760Z,10.15
2024-04-26T22:01:47.239Z,8.50
2024-04-26T22:04:14.682Z,8.30
2024-04-26T22:06:41.729Z,7.90
2024-04-26T22:09:08.739Z,8.00
2024-04-26T22:11:35.739Z,9.05
2024-04-26T22:14:03.324Z,15.85
2024-04-26T22:16:30.510Z,13.10
2024-04-26T22:18:59.342Z,10.18
2024-04-26T22:21:26.450Z,11.45
2024-04-26T22:23:53.742Z,10.82
2024-04-26T22:26:20.642Z,9.00
2024-04-26T22:28:51.644Z,10.95
2024-04-26T22:31:22.991Z,10.50
2024-04-26T22:36:17.437Z,10.95
2024-04-26T22:38:44.541Z,11.23
2024-04-26T22:41:11.643Z,19.77
2024-04-26T22:43:38.984Z,11.85
2024-04-26T22:46:07.317Z,11.52
2024-04-26T22:48:34.472Z,12.85
2024-04-26T22:51:01.793Z,16.00
2024-04-26T22:53:29.102Z,8.98
2024-04-26T22:55:58.713Z,13.52
2024-04-26T22:58:25.988Z,11.45
2024-04-26T23:00:52.968Z,8.70
2024-04-26T23:03:19.924Z,10.30
2024-04-26T23:05:46.784Z,7.75
2024-04-26T23:08:13.731Z,6.68
2024-04-26T23:10:40.713Z,6.68
2024-04-26T23:13:08.088Z,8.43
2024-04-26T23:15:35.066Z,11.27
2024-04-26T23:18:02.200Z,9.48
2024-04-26T23:20:29.246Z,10.35
2024-04-26T23:22:56.262Z,6.65
2024-04-26T23:25:23.203Z,7.22
2024-04-26T23:27:50.751Z,14.32
2024-04-26T23:30:17.710Z,10.75
2024-04-26T23:32:44.715Z,17.30
2024-04-26T23:35:11.810Z,19.85
2024-04-26T23:37:38.849Z,12.55
2024-04-26T23:40:06.376Z,9.77
2024-04-26T23:42:33.280Z,18.65
2024-04-26T23:45:00.489Z,9.45
2024-04-26T23:47:27.771Z,10.10
2024-04-26T23:49:54.819Z,11.55
2024-04-26T23:52:21.849Z,10.73
2024-04-26T23:54:48.740Z,9.93
2024-04-26T23:57:15.737Z,10.32
2024-04-26T23:59:42.722Z,9.02
